Time;durP1;ratioP1;P1;durP2;ratioP2;P2;SDS_P1;SDS_P2;PMS_P1;PMS_P2;Temp;Humidity;BMP_temperature;BMP_pressure;BME280_temperature;BME280_humidity;BME280_pressure;Samples;Min_cycle;Max_cycle;Signal;HPM_P1;HPM_P2
2022/02/25 00:00:26;;;;;;;2.13;0.50;;;;;;;4.75;79.30;100258.31;4944936;29;20039;-76
2022/02/25 00:02:51;;;;;;;1.05;0.63;;;;;;;4.81;78.98;100263.59;4949499;29;20035;-76
2022/02/25 00:05:17;;;;;;;2.25;0.80;;;;;;;4.79;79.87;100269.66;4946749;29;20435;-76
2022/02/25 00:07:42;;;;;;;1.08;0.60;;;;;;;4.74;79.81;100266.13;4947915;29;20046;-76
2022/02/25 00:10:08;;;;;;;3.17;1.33;;;;;;;4.71;80.34;100280.03;4945255;29;20075;-75
2022/02/25 00:12:33;;;;;;;0.90;0.60;;;;;;;4.72;80.58;100279.19;4947530;29;20039;-75
2022/02/25 00:15:00;;;;;;;2.03;0.80;;;;;;;4.69;80.73;100289.59;4945878;29;20489;-75
2022/02/25 00:17:25;;;;;;;1.08;0.55;;;;;;;4.69;80.03;100283.47;4947455;29;20046;-75
2022/02/25 00:19:51;;;;;;;3.65;0.82;;;;;;;4.68;80.16;100287.84;4945189;29;20035;-75
2022/02/25 00:22:16;;;;;;;1.48;0.70;;;;;;;4.61;79.94;100288.59;4947746;29;20085;-75
2022/02/25 00:24:41;;;;;;;2.10;0.80;;;;;;;4.56;80.34;100299.00;4945992;29;20182;-74
2022/02/25 00:27:07;;;;;;;1.58;0.80;;;;;;;4.49;79.75;100302.38;4946235;29;20090;-75
2022/02/25 00:29:32;;;;;;;1.80;1.10;;;;;;;4.47;79.76;100316.28;4946621;28;20043;-75
2022/02/25 00:31:57;;;;;;;1.75;0.85;;;;;;;4.50;79.01;100326.78;4938234;29;20039;-75
2022/02/25 00:34:23;;;;;;;2.08;1.00;;;;;;;4.52;78.81;100328.56;4951812;28;20043;-75
2022/02/25 00:36:48;;;;;;;1.95;1.10;;;;;;;4.51;77.98;100326.81;4948328;29;20047;-75
2022/02/25 00:39:13;;;;;;;2.72;1.20;;;;;;;4.57;78.19;100328.63;4945796;28;20131;-74
2022/02/25 00:41:39;;;;;;;2.30;1.15;;;;;;;4.58;77.48;100326.06;4948906;28;20118;-74
2022/02/25 00:44:04;;;;;;;3.28;1.00;;;;;;;4.60;77.81;100342.63;4948572;29;20046;-74
2022/02/25 00:46:30;;;;;;;2.30;1.20;;;;;;;4.66;77.13;100340.94;4945741;29;20035;-74
2022/02/25 00:48:55;;;;;;;4.50;2.33;;;;;;;4.60;77.92;100342.63;4946043;29;20043;-74
2022/02/25 00:51:21;;;;;;;2.45;1.20;;;;;;;4.63;77.64;100344.41;4946680;29;20491;-75
2022/02/25 00:53:46;;;;;;;3.63;1.50;;;;;;;4.56;77.93;100340.84;4943259;29;20040;-74
2022/02/25 00:56:11;;;;;;;2.45;1.30;;;;;;;4.55;77.79;100361.69;4947627;29;20093;-75
2022/02/25 00:58:36;;;;;;;2.60;1.40;;;;;;;4.42;77.50;100368.47;4944393;28;20082;-74
2022/02/25 01:01:02;;;;;;;1.95;1.10;;;;;;;4.48;76.67;100358.13;4945497;29;20038;-74
2022/02/25 01:03:28;;;;;;;3.65;2.15;;;;;;;4.58;77.55;100364.34;4947394;28;20059;-75
2022/02/25 01:05:53;;;;;;;2.90;1.13;;;;;;;4.64;76.09;100363.56;4947720;29;20035;-75
2022/02/25 01:08:19;;;;;;;2.80;1.60;;;;;;;4.70;75.30;100368.91;4944549;29;20055;-75
2022/02/25 01:10:44;;;;;;;3.78;2.03;;;;;;;4.75;76.36;100375.09;4946049;29;20035;-75
2022/02/25 01:13:09;;;;;;;2.88;1.55;;;;;;;4.78;75.03;100370.78;4946063;29;20043;-74
2022/02/25 01:15:35;;;;;;;3.50;0.90;;;;;;;4.76;74.70;100374.22;4944339;29;20126;-74
2022/02/25 01:18:00;;;;;;;3.83;0.90;;;;;;;4.71;74.80;100396.81;4947276;28;20097;-75
2022/02/25 01:20:26;;;;;;;2.88;1.00;;;;;;;4.70;73.91;100384.59;4944958;29;20043;-74
2022/02/25 01:22:51;;;;;;;2.47;1.10;;;;;;;4.61;74.56;100390.53;4945162;29;20050;-74
2022/02/25 01:25:16;;;;;;;1.55;0.80;;;;;;;4.61;74.96;100391.44;4946420;29;20031;-74
2022/02/25 01:27:42;;;;;;;1.95;1.10;;;;;;;4.60;74.46;100402.72;4943918;29;20086;-74
2022/02/25 01:30:10;;;;;;;2.17;1.20;;;;;;;4.47;74.43;100399.91;4946588;28;20047;-74
2022/02/25 01:32:35;;;;;;;2.20;1.23;;;;;;;4.46;74.68;100411.22;4944974;28;20031;-75
2022/02/25 01:35:02;;;;;;;3.13;1.20;;;;;;;4.40;75.31;100422.44;4947390;29;20042;-75
2022/02/25 01:37:28;;;;;;;2.97;1.17;;;;;;;4.40;74.91;100432.88;4943893;29;20036;-74
2022/02/25 01:39:53;;;;;;;2.80;1.30;;;;;;;4.39;75.41;100429.41;4946303;28;20032;-74
2022/02/25 01:42:19;;;;;;;2.38;1.20;;;;;;;4.30;75.38;100431.00;4944536;29;20035;-75
2022/02/25 01:44:45;;;;;;;4.63;1.13;;;;;;;4.26;75.29;100437.88;4944727;29;20055;-74
2022/02/25 01:47:11;;;;;;;4.15;1.35;;;;;;;4.17;75.70;100432.50;4946523;29;20043;-75
2022/02/25 01:49:39;;;;;;;2.60;1.40;;;;;;;4.04;75.98;100443.56;4946433;28;20039;-74
2022/02/25 01:52:12;;;;;;;3.20;1.30;;;;;;;4.03;75.99;100449.63;4944460;29;20050;-75
2022/02/25 01:54:40;;;;;;;2.90;1.45;;;;;;;3.94;76.27;100437.28;4943441;29;20043;-74
2022/02/25 01:57:10;;;;;;;3.90;1.25;;;;;;;3.98;76.15;100439.09;4946035;29;20043;-74
2022/02/25 01:59:37;;;;;;;3.38;1.55;;;;;;;4.02;75.81;100450.50;4945130;29;20032;-75
2022/02/25 02:02:03;;;;;;;3.05;1.52;;;;;;;4.04;75.84;100438.34;4943272;28;20067;-75
2022/02/25 02:04:29;;;;;;;3.10;1.55;;;;;;;4.11;75.37;100445.44;4945915;28;20078;-74
2022/02/25 02:06:54;;;;;;;3.78;1.40;;;;;;;4.07;75.34;100449.72;4943942;29;20043;-75
2022/02/25 02:09:19;;;;;;;3.17;1.30;;;;;;;4.07;75.22;100448.84;4944190;28;20031;-74
2022/02/25 02:11:48;;;;;;;2.10;1.25;;;;;;;3.93;75.37;100445.97;4945568;28;20043;-74
2022/02/25 02:14:18;;;;;;;2.13;1.30;;;;;;;3.83;75.81;100442.31;4948926;29;20046;-73
2022/02/25 02:16:48;;;;;;;3.75;1.30;;;;;;;3.70;75.67;100440.31;4947482;29;20031;-74
2022/02/25 02:19:15;;;;;;;3.53;1.65;;;;;;;3.56;76.54;100446.94;4942701;28;20058;-74
2022/02/25 02:21:45;;;;;;;4.43;1.17;;;;;;;3.44;76.34;100451.06;4945245;29;20118;-74
2022/02/25 02:24:11;;;;;;;3.83;1.50;;;;;;;3.34;77.08;100461.28;4944561;29;20114;-74
2022/02/25 02:26:37;;;;;;;3.47;1.48;;;;;;;3.23;76.74;100459.31;4945338;29;20035;-74
2022/02/25 02:29:04;;;;;;;4.55;1.75;;;;;;;3.19;77.14;100470.50;4941663;29;20036;-74
2022/02/25 02:31:29;;;;;;;4.30;1.75;;;;;;;3.15;77.10;100475.63;4945254;28;20039;-74
2022/02/25 02:33:55;;;;;;;4.78;1.70;;;;;;;3.05;77.38;100478.03;4946500;29;20047;-75
2022/02/25 02:36:20;;;;;;;4.22;1.88;;;;;;;3.01;77.51;100480.50;4948362;28;20032;-74
2022/02/25 02:38:46;;;;;;;4.22;1.75;;;;;;;2.95;77.43;100489.06;4945552;29;20031;-74
2022/02/25 02:41:12;;;;;;;4.05;1.52;;;;;;;2.96;77.79;100488.25;4942598;29;20388;-75
2022/02/25 02:43:38;;;;;;;3.95;1.52;;;;;;;2.90;77.87;100490.69;4943514;29;20039;-74
2022/02/25 02:46:05;;;;;;;6.88;2.60;;;;;;;2.90;78.57;100498.50;4944595;29;20062;-74
2022/02/25 02:48:31;;;;;;;4.32;1.60;;;;;;;2.93;78.40;100493.34;4942551;28;20500;-75
2022/02/25 02:50:57;;;;;;;3.28;1.52;;;;;;;2.95;78.25;100491.69;4945018;29;20051;-75
2022/02/25 02:53:22;;;;;;;3.22;1.70;;;;;;;2.93;78.16;100497.69;4943456;29;20039;-75
2022/02/25 02:55:47;;;;;;;2.58;1.45;;;;;;;2.82;78.43;100494.84;4943907;29;20035;-75
2022/02/25 02:58:13;;;;;;;4.53;1.90;;;;;;;2.73;78.62;100505.06;4944835;28;20377;-75
2022/02/25 03:00:42;;;;;;;7.68;2.25;;;;;;;2.73;78.35;100510.25;4942315;29;20039;-74
2022/02/25 03:03:08;;;;;;;5.05;2.22;;;;;;;2.66;79.02;100511.81;4944651;28;20042;-75
2022/02/25 03:05:34;;;;;;;7.28;1.98;;;;;;;2.60;79.24;100519.50;4943967;29;20392;-74
2022/02/25 03:08:00;;;;;;;4.97;2.03;;;;;;;2.54;79.32;100525.44;4942285;29;20039;-75
2022/02/25 03:10:26;;;;;;;4.45;1.77;;;;;;;2.51;80.09;100530.53;4945286;29;20643;-75
2022/02/25 03:12:54;;;;;;;4.10;2.08;;;;;;;2.53;79.89;100536.66;4942995;29;20038;-75
2022/02/25 03:15:19;;;;;;;3.72;2.03;;;;;;;2.51;80.08;100530.53;4926167;29;20031;-75
2022/02/25 03:17:45;;;;;;;6.50;2.10;;;;;;;2.51;80.22;100538.34;4943618;28;20043;-75
2022/02/25 03:20:13;;;;;;;3.95;1.77;;;;;;;2.51;80.18;100548.75;4945511;28;20527;-75
2022/02/25 03:22:38;;;;;;;4.35;2.00;;;;;;;2.47;80.60;100549.53;4942290;29;20070;-74
2022/02/25 03:25:05;;;;;;;3.72;2.35;;;;;;;2.47;80.51;100549.53;4943461;29;20036;-74
2022/02/25 03:27:31;;;;;;;4.13;2.15;;;;;;;2.42;80.83;100556.34;4942468;29;20035;-75
2022/02/25 03:29:57;;;;;;;3.60;2.17;;;;;;;2.44;80.97;100556.38;4944848;28;20035;-75
2022/02/25 03:32:23;;;;;;;5.18;2.10;;;;;;;2.41;80.91;100570.19;4942384;28;20047;-74
2022/02/25 03:34:50;;;;;;;4.32;2.42;;;;;;;2.37;80.88;100569.25;4945631;29;20074;-74
2022/02/25 03:37:16;;;;;;;4.57;2.63;;;;;;;2.33;80.84;100577.81;4942470;29;20122;-74
2022/02/25 03:39:41;;;;;;;6.45;2.95;;;;;;;2.32;81.66;100567.34;4944892;29;20042;-75
2022/02/25 03:42:07;;;;;;;5.07;3.28;;;;;;;2.34;81.18;100583.91;4941942;29;20032;-74
2022/02/25 03:44:33;;;;;;;5.88;2.97;;;;;;;2.28;81.23;100583.72;4943496;29;20487;-74
2022/02/25 03:46:58;;;;;;;5.05;2.80;;;;;;;2.30;81.34;100592.47;4944093;29;20047;-75
2022/02/25 03:49:24;;;;;;;5.57;3.05;;;;;;;2.26;81.83;100593.25;4941691;28;20035;-74
2022/02/25 03:51:49;;;;;;;5.25;3.20;;;;;;;2.23;81.48;100595.72;4944303;29;20118;-75
2022/02/25 03:54:15;;;;;;;5.53;3.53;;;;;;;2.19;82.03;100595.66;4943116;28;20060;-75
2022/02/25 03:56:40;;;;;;;7.28;3.65;;;;;;;2.21;81.95;100602.63;4949297;29;20044;-74
2022/02/25 03:59:06;;;;;;;5.13;3.17;;;;;;;2.21;81.87;100606.13;4945525;28;20038;-74
2022/02/25 04:01:31;;;;;;;4.63;2.78;;;;;;;2.15;81.64;100612.03;4941313;28;20407;-75
2022/02/25 04:03:57;;;;;;;5.03;3.45;;;;;;;2.08;81.99;100610.09;4947355;28;20125;-74
2022/02/25 04:06:22;;;;;;;5.20;3.10;;;;;;;2.05;81.97;100612.59;4944790;29;20035;-74
2022/02/25 04:08:48;;;;;;;7.15;3.40;;;;;;;2.09;82.09;100611.84;4943657;28;20039;-75
2022/02/25 04:11:13;;;;;;;8.50;3.50;;;;;;;2.12;81.60;100616.25;4941479;29;20040;-74
2022/02/25 04:13:40;;;;;;;5.65;4.18;;;;;;;2.12;81.72;100613.66;4944638;29;20058;-75
2022/02/25 04:16:07;;;;;;;8.00;3.60;;;;;;;2.12;81.61;100629.25;4942766;29;20074;-75
2022/02/25 04:18:33;;;;;;;7.03;3.65;;;;;;;2.11;81.51;100628.38;4946238;28;20110;-74
2022/02/25 04:20:58;;;;;;;6.63;4.53;;;;;;;2.10;81.81;100626.63;4945041;28;20123;-74
2022/02/25 04:23:23;;;;;;;7.35;3.72;;;;;;;2.04;81.66;100631.63;4941586;29;20132;-74
2022/02/25 04:25:49;;;;;;;8.23;4.22;;;;;;;2.03;81.51;100639.41;4943613;29;20066;-75
2022/02/25 04:28:16;;;;;;;6.20;3.40;;;;;;;2.00;82.01;100645.41;4944029;28;20040;-74
2022/02/25 04:30:42;;;;;;;7.20;4.07;;;;;;;2.02;81.78;100635.03;4945554;29;20476;-74
2022/02/25 04:33:07;;;;;;;6.28;3.38;;;;;;;2.02;81.84;100648.97;4949031;28;20634;-75
2022/02/25 04:35:33;;;;;;;7.18;3.80;;;;;;;1.98;81.78;100644.47;4945652;29;20035;-74
2022/02/25 04:37:59;;;;;;;7.90;3.65;;;;;;;1.96;81.92;100648.75;4946341;29;20035;-75
2022/02/25 04:40:24;;;;;;;6.47;4.15;;;;;;;1.93;81.47;100651.25;4947289;29;20110;-75
2022/02/25 04:42:50;;;;;;;5.95;3.60;;;;;;;1.88;82.37;100651.13;4944536;29;20031;-75
2022/02/25 04:45:16;;;;;;;7.53;3.97;;;;;;;1.92;83.19;100655.59;4947532;29;20039;-74
2022/02/25 04:47:41;;;;;;;6.07;3.95;;;;;;;1.91;82.55;100660.75;4945671;29;20543;-75
2022/02/25 04:50:08;;;;;;;6.28;3.97;;;;;;;1.88;81.74;100660.66;4945648;28;20130;-74
2022/02/25 04:52:33;;;;;;;5.57;3.60;;;;;;;1.77;82.49;100664.66;4949230;29;20043;-75
2022/02/25 04:55:00;;;;;;;7.47;3.65;;;;;;;1.77;82.35;100662.03;4927228;28;20043;-75
2022/02/25 04:57:25;;;;;;;5.80;3.50;;;;;;;1.73;82.61;100661.94;4951847;29;20151;-74
2022/02/25 04:59:50;;;;;;;6.03;3.63;;;;;;;1.74;82.47;100663.72;4949673;28;20123;-74
2022/02/25 05:02:16;;;;;;;7.22;3.80;;;;;;;1.69;82.73;100670.47;4943278;28;20074;-74
2022/02/25 05:04:41;;;;;;;7.65;3.70;;;;;;;1.78;82.18;100669.00;4938248;29;20459;-75
2022/02/25 05:07:07;;;;;;;6.15;3.45;;;;;;;1.78;81.86;100684.63;4946896;29;20038;-74
2022/02/25 05:09:32;;;;;;;7.60;3.80;;;;;;;1.77;81.82;100677.66;4946558;28;20079;-74
2022/02/25 05:11:58;;;;;;;8.02;3.60;;;;;;;1.80;82.07;100685.56;4946677;28;20047;-75
2022/02/25 05:22:35;;;;;;;5.70;3.03;;;;;;;1.74;81.58;100700.13;4942356;29;20081;-74
2022/02/25 05:25:01;;;;;;;6.32;3.20;;;;;;;1.73;81.89;100711.41;4947283;28;20063;-74
2022/02/25 05:27:26;;;;;;;6.95;3.13;;;;;;;1.80;81.42;100714.19;4957509;28;20036;-73
2022/02/25 05:29:51;;;;;;;5.60;3.40;;;;;;;1.84;81.22;100713.47;4947369;28;20040;-73
2022/02/25 05:32:17;;;;;;;5.97;3.10;;;;;;;1.83;81.25;100722.97;4955429;28;20043;-75
2022/02/25 05:34:42;;;;;;;6.03;3.00;;;;;;;1.80;80.77;100724.59;4947953;29;20047;-74
2022/02/25 05:37:08;;;;;;;6.05;3.03;;;;;;;1.73;80.86;100719.19;4950628;29;20050;-73
2022/02/25 05:39:33;;;;;;;7.93;2.90;;;;;;;1.80;81.33;100722.00;4943383;29;20036;-75
2022/02/25 05:41:59;;;;;;;6.70;2.83;;;;;;;1.78;80.79;100728.84;4945843;29;20043;-74
2022/02/25 05:44:24;;;;;;;6.13;2.80;;;;;;;1.74;80.84;100731.38;4945016;29;20448;-75
2022/02/25 05:46:49;;;;;;;8.10;3.90;;;;;;;1.70;80.99;100731.19;4943125;29;20047;-75
2022/02/25 05:49:15;;;;;;;6.53;2.97;;;;;;;1.67;81.48;100736.31;4951003;28;20035;-75
2022/02/25 05:51:40;;;;;;;8.32;3.40;;;;;;;1.62;81.46;100741.34;4949269;29;20054;-74
2022/02/25 05:54:05;;;;;;;5.43;3.00;;;;;;;1.56;81.90;100741.16;4950135;29;20039;-75
2022/02/25 05:56:31;;;;;;;9.98;3.63;;;;;;;1.53;81.78;100751.47;4944734;29;20039;-74
2022/02/25 05:58:56;;;;;;;6.75;3.40;;;;;;;1.47;82.08;100752.16;4947092;28;20399;-73
2022/02/25 06:01:22;;;;;;;7.03;2.97;;;;;;;1.47;82.54;100751.28;4950839;29;20039;-75
2022/02/25 06:03:48;;;;;;;7.10;3.20;;;;;;;1.42;82.67;100758.91;4953443;29;20046;-75
2022/02/25 06:06:13;;;;;;;6.35;3.05;;;;;;;1.42;82.68;100763.22;4948929;29;20117;-75
2022/02/25 06:08:39;;;;;;;7.55;2.38;;;;;;;1.43;83.15;100770.19;4949901;28;20039;-74
2022/02/25 06:11:04;;;;;;;7.53;3.00;;;;;;;1.49;83.16;100768.69;4946759;29;20039;-74
2022/02/25 06:13:29;;;;;;;8.27;3.78;;;;;;;1.47;83.30;100767.75;4943305;29;20039;-75
2022/02/25 06:15:55;;;;;;;8.32;3.13;;;;;;;1.50;83.53;100779.97;4945458;29;20039;-75
2022/02/25 06:18:20;;;;;;;6.97;3.20;;;;;;;1.53;83.36;100785.28;4944434;29;20496;-75
2022/02/25 06:20:45;;;;;;;8.55;3.38;;;;;;;1.56;82.81;100792.31;4943771;29;20039;-75
2022/02/25 06:23:11;;;;;;;6.30;2.75;;;;;;;1.61;83.46;100785.56;4945586;29;20070;-75
2022/02/25 06:25:37;;;;;;;8.55;5.07;;;;;;;1.73;84.56;100789.47;4945533;29;20097;-75
2022/02/25 06:28:03;;;;;;;9.70;5.35;;;;;;;1.95;85.65;100792.75;4946862;28;20049;-75
2022/02/25 06:30:29;;;;;;;9.25;3.85;;;;;;;2.08;82.64;100800.13;4942185;29;20062;-75
2022/02/25 06:32:54;;;;;;;4.10;2.67;;;;;;;2.04;81.76;100808.66;4945183;29;20048;-75
2022/02/25 06:35:20;;;;;;;4.85;2.40;;;;;;;2.01;81.68;100811.19;4939518;29;20036;-75
2022/02/25 06:37:45;;;;;;;6.65;2.55;;;;;;;2.04;81.12;100818.19;4943760;29;20092;-75
2022/02/25 06:40:11;;;;;;;6.35;2.97;;;;;;;2.05;80.68;100810.47;4942783;29;20403;-75
2022/02/25 06:42:38;;;;;;;6.05;2.72;;;;;;;2.06;80.69;100811.34;4947768;29;20102;-75
2022/02/25 06:45:04;;;;;;;9.20;2.80;;;;;;;2.09;80.06;100817.50;4935386;29;20043;-75
2022/02/25 06:47:29;;;;;;;6.03;2.42;;;;;;;2.13;80.33;100819.41;4948986;29;20090;-75
2022/02/25 06:49:55;;;;;;;6.80;2.40;;;;;;;2.17;79.36;100821.28;4947370;28;20046;-75
2022/02/25 06:52:21;;;;;;;5.97;2.10;;;;;;;2.22;79.06;100828.34;4943728;29;20126;-75
2022/02/25 06:54:46;;;;;;;4.70;1.95;;;;;;;2.26;78.59;100825.91;4947483;29;20036;-75
2022/02/25 06:57:12;;;;;;;4.70;1.67;;;;;;;2.29;78.63;100828.59;4948815;28;20035;-75
2022/02/25 06:59:37;;;;;;;6.93;1.88;;;;;;;2.33;77.97;100847.78;4946512;28;20067;-75
2022/02/25 07:02:03;;;;;;;4.40;1.80;;;;;;;2.37;77.54;100832.31;4949275;29;20049;-75
2022/02/25 07:04:29;;;;;;;7.85;2.38;;;;;;;2.41;77.58;100830.69;4942648;29;20040;-75
2022/02/25 07:06:54;;;;;;;5.65;2.00;;;;;;;2.48;77.47;100839.59;4945144;29;20058;-75
2022/02/25 07:09:20;;;;;;;5.07;1.50;;;;;;;2.52;76.61;100837.13;4942539;29;20031;-75
2022/02/25 07:11:46;;;;;;;5.72;1.60;;;;;;;2.61;76.09;100855.66;4944676;29;20035;-75
2022/02/25 07:14:12;;;;;;;5.90;1.45;;;;;;;2.60;75.67;100847.81;4932537;29;20036;-75
2022/02/25 07:16:37;;;;;;;8.20;2.65;;;;;;;2.75;76.29;100855.19;4944821;29;20377;-75
2022/02/25 07:19:02;;;;;;;5.53;1.92;;;;;;;2.75;75.26;100855.19;4942297;29;20027;-75
2022/02/25 07:21:28;;;;;;;5.03;1.30;;;;;;;2.82;74.84;100855.41;4948351;29;20039;-75
2022/02/25 07:23:53;;;;;;;4.15;1.65;;;;;;;2.84;74.11;100864.19;4945293;29;20054;-75
2022/02/25 07:26:19;;;;;;;5.78;1.50;;;;;;;2.91;73.38;100857.44;4942273;29;20039;-75
2022/02/25 07:28:44;;;;;;;6.68;1.00;;;;;;;3.01;73.42;100866.41;4945302;28;20039;-75
2022/02/25 07:31:09;;;;;;;5.25;1.38;;;;;;;3.01;73.24;100863.78;4944145;29;20043;-75
2022/02/25 07:33:35;;;;;;;7.25;1.38;;;;;;;3.03;72.94;100870.81;4943284;29;20044;-75
2022/02/25 07:36:00;;;;;;;4.95;1.30;;;;;;;3.14;72.60;100875.47;4941638;29;20043;-75
2022/02/25 07:38:26;;;;;;;2.95;1.00;;;;;;;3.16;72.39;100879.03;4944816;29;20086;-75
2022/02/25 07:40:51;;;;;;;3.25;1.10;;;;;;;3.16;72.13;100877.28;4941769;29;20054;-75
2022/02/25 07:43:19;;;;;;;4.38;1.63;;;;;;;3.24;72.06;100874.91;4943947;29;20114;-75
2022/02/25 07:45:49;;;;;;;4.65;1.00;;;;;;;3.32;71.06;100886.44;4942921;29;20733;-75
2022/02/25 07:48:16;;;;;;;5.82;1.23;;;;;;;3.35;70.98;100894.34;4944713;28;20047;-75
2022/02/25 07:50:42;;;;;;;4.55;1.17;;;;;;;3.47;70.05;100886.88;4944015;29;20043;-76
2022/02/25 07:53:07;;;;;;;5.20;1.30;;;;;;;3.49;69.71;100882.59;4943146;29;20032;-75
2022/02/25 07:55:32;;;;;;;4.50;1.15;;;;;;;3.54;69.69;100889.66;4942456;29;20099;-75
2022/02/25 07:57:58;;;;;;;8.48;2.83;;;;;;;3.58;69.77;100892.41;4944779;28;20058;-76
2022/02/25 08:00:24;;;;;;;6.07;2.05;;;;;;;3.67;69.44;100892.69;4944079;29;20517;-75
2022/02/25 08:02:50;;;;;;;6.25;1.85;;;;;;;3.72;69.07;100896.31;4943259;28;20516;-75
2022/02/25 08:05:16;;;;;;;6.10;1.35;;;;;;;3.78;68.22;100890.34;4950795;29;20082;-76
2022/02/25 08:07:43;;;;;;;4.70;1.50;;;;;;;3.81;67.36;100897.38;4951381;29;20496;-75
2022/02/25 08:10:09;;;;;;;7.97;2.53;;;;;;;3.86;68.36;100886.22;4937965;29;20047;-75
2022/02/25 08:12:34;;;;;;;5.38;1.50;;;;;;;3.90;68.06;100893.31;4950882;29;20034;-75
2022/02/25 08:14:59;;;;;;;7.47;2.45;;;;;;;4.02;67.91;100902.31;4946843;29;20044;-75
2022/02/25 08:17:25;;;;;;;6.70;3.10;;;;;;;4.07;66.67;100890.25;4945581;29;20039;-75
2022/02/25 08:19:51;;;;;;;8.77;1.80;;;;;;;4.14;66.24;100894.78;4947971;29;20031;-75
2022/02/25 08:22:18;;;;;;;4.32;1.40;;;;;;;4.14;64.65;100889.56;4944624;29;20066;-75
2022/02/25 08:24:45;;;;;;;5.43;1.73;;;;;;;4.21;65.89;100896.69;4948938;29;20059;-75
2022/02/25 08:27:10;;;;;;;4.07;1.35;;;;;;;4.09;65.51;100905.13;4950940;28;20042;-75
2022/02/25 08:29:35;;;;;;;7.07;1.77;;;;;;;4.28;65.42;100903.84;4946648;28;20036;-75
2022/02/25 08:32:01;;;;;;;6.40;1.77;;;;;;;4.36;65.55;100909.28;4946457;29;20400;-75
2022/02/25 08:34:26;;;;;;;8.10;1.50;;;;;;;4.43;64.92;100907.69;4950079;29;20050;-75
2022/02/25 08:36:55;;;;;;;11.13;2.60;;;;;;;4.48;65.28;100901.75;4950500;29;20058;-75
2022/02/25 08:39:24;;;;;;;5.82;1.50;;;;;;;4.48;63.26;100930.50;4938398;29;20043;-75
2022/02/25 08:41:50;;;;;;;4.28;1.20;;;;;;;4.59;63.88;100915.94;4944958;29;20039;-75
2022/02/25 08:44:15;;;;;;;5.28;1.50;;;;;;;4.58;64.50;100918.50;4945474;29;20038;-75
2022/02/25 08:46:42;;;;;;;5.63;1.83;;;;;;;4.55;64.06;100908.00;4946948;29;20393;-75
2022/02/25 08:49:07;;;;;;;5.00;1.52;;;;;;;4.48;64.15;100919.13;4943168;29;20527;-75
2022/02/25 08:51:33;;;;;;;9.82;1.45;;;;;;;4.58;63.87;100919.44;4945556;29;20046;-75
2022/02/25 08:53:58;;;;;;;4.85;1.52;;;;;;;4.65;63.24;100935.25;4951592;29;20039;-75
2022/02/25 08:56:25;;;;;;;4.22;1.30;;;;;;;4.64;63.11;100923.00;4944572;29;20043;-75
2022/02/25 08:58:51;;;;;;;3.78;1.52;;;;;;;4.58;63.34;100919.44;4946533;28;20067;-75
2022/02/25 09:01:17;;;;;;;5.55;1.70;;;;;;;4.72;63.72;100919.75;4950793;29;20078;-76
2022/02/25 09:03:42;;;;;;;6.22;1.90;;;;;;;4.73;62.91;100929.34;4949656;29;20404;-75
2022/02/25 09:06:07;;;;;;;7.15;1.40;;;;;;;4.84;62.26;100934.81;4945264;29;20035;-76
2022/02/25 09:08:33;;;;;;;6.35;1.50;;;;;;;4.86;62.02;100927.03;4946947;29;20090;-75
2022/02/25 09:10:58;;;;;;;4.82;1.95;;;;;;;5.07;62.06;100947.56;4946993;29;20078;-76
2022/02/25 09:13:23;;;;;;;8.57;2.10;;;;;;;5.07;61.09;100937.97;4948656;29;20047;-75
2022/02/25 09:15:49;;;;;;;5.55;1.92;;;;;;;5.10;60.39;100948.50;4946618;29;20062;-76
2022/02/25 09:18:15;;;;;;;7.50;1.50;;;;;;;5.17;61.23;100936.47;4949760;28;20054;-75
2022/02/25 09:20:42;;;;;;;6.70;1.70;;;;;;;5.17;59.91;100936.47;4944995;29;20106;-75
2022/02/25 09:23:07;;;;;;;7.03;2.38;;;;;;;5.22;59.17;100934.84;4947429;29;20074;-76
2022/02/25 09:25:32;;;;;;;4.65;1.30;;;;;;;5.39;59.62;100935.19;4935783;29;20059;-75
2022/02/25 09:27:58;;;;;;;4.30;1.40;;;;;;;5.30;58.83;100945.47;4947606;28;20035;-75
2022/02/25 09:30:24;;;;;;;5.35;1.70;;;;;;;5.42;59.45;100932.63;4945216;28;20051;-75
2022/02/25 09:32:50;;;;;;;6.10;2.05;;;;;;;5.39;59.06;100932.56;4950993;29;20036;-75
2022/02/25 09:35:15;;;;;;;10.85;2.75;;;;;;;5.41;58.53;100937.00;4946755;29;20031;-75
2022/02/25 09:37:41;;;;;;;6.78;1.70;;;;;;;5.42;56.94;100941.41;4936336;29;20472;-75
2022/02/25 09:40:10;;;;;;;10.05;3.88;;;;;;;5.79;60.83;100951.72;4945185;28;20082;-75
2022/02/25 09:42:36;;;;;;;5.57;1.58;;;;;;;6.02;57.60;100949.59;4946288;29;20035;-75
2022/02/25 09:45:03;;;;;;;4.95;1.30;;;;;;;6.01;56.55;100951.31;4951765;29;20039;-76
2022/02/25 09:47:30;;;;;;;5.70;1.98;;;;;;;5.97;55.45;100949.50;4950142;29;20170;-75
2022/02/25 09:49:55;;;;;;;5.80;1.35;;;;;;;6.32;55.90;100957.16;4943907;29;20134;-76
2022/02/25 09:52:21;;;;;;;7.00;1.77;;;;;;;6.48;55.47;100948.69;4949875;29;20118;-75
2022/02/25 09:54:46;;;;;;;5.47;1.55;;;;;;;6.53;54.30;100962.75;4951732;29;20035;-75
2022/02/25 09:57:11;;;;;;;9.20;1.80;;;;;;;6.80;55.78;100959.69;4951099;29;20066;-76
2022/02/25 09:59:37;;;;;;;6.97;1.40;;;;;;;6.83;53.80;100944.88;4951248;29;20023;-75
2022/02/25 10:02:05;;;;;;;11.38;1.73;;;;;;;6.97;53.33;100944.25;4947379;29;20039;-76
2022/02/25 10:04:31;;;;;;;6.50;1.85;;;;;;;7.05;53.10;100956.56;4948932;29;20031;-75
2022/02/25 10:06:56;;;;;;;5.72;1.40;;;;;;;6.71;53.32;100962.19;4944102;29;20027;-75
2022/02/25 10:09:33;;;;;;;8.20;1.95;;;;;;;6.65;53.03;100962.06;4945518;29;20039;-75
2022/02/25 10:12:02;;;;;;;5.60;1.60;;;;;;;6.50;52.60;100973.19;4944701;28;20039;-75
2022/02/25 10:14:36;;;;;;;6.40;1.40;;;;;;;6.59;53.70;100962.84;4943824;29;20043;-75
2022/02/25 10:17:13;;;;;;;6.28;1.50;;;;;;;6.47;52.24;100967.91;4946186;29;20071;-75
2022/02/25 10:19:39;;;;;;;6.57;1.90;;;;;;;6.53;52.45;100985.50;4945794;29;20178;-75
2022/02/25 10:22:26;;;;;;;8.27;1.90;;;;;;;6.55;52.29;100971.53;4948723;29;20152;-75
2022/02/25 10:24:58;;;;;;;8.60;2.00;;;;;;;6.61;52.07;100968.13;4952101;29;20491;-75
2022/02/25 10:27:26;;;;;;;13.95;2.08;;;;;;;6.70;51.82;100964.78;4943927;28;20408;-75
2022/02/25 10:30:01;;;;;;;6.78;1.95;;;;;;;6.77;51.50;100951.78;4945473;28;20035;-75
2022/02/25 10:32:33;;;;;;;5.38;1.40;;;;;;;6.79;52.26;100959.69;4948856;29;20031;-75
2022/02/25 10:35:00;;;;;;;7.95;1.77;;;;;;;6.82;51.62;100965.00;4948391;29;20118;-75
2022/02/25 10:37:26;;;;;;;6.00;1.60;;;;;;;6.76;52.50;100970.16;4926152;29;20044;-75
2022/02/25 10:39:51;;;;;;;6.63;1.60;;;;;;;6.55;51.93;100958.44;4943169;28;20044;-75
2022/02/25 10:42:23;;;;;;;5.97;1.60;;;;;;;6.57;53.28;100961.94;4945953;29;20177;-75
2022/02/25 10:44:53;;;;;;;8.93;1.50;;;;;;;6.72;52.49;100957.81;4942662;29;20035;-75
2022/02/25 10:47:28;;;;;;;7.40;1.40;;;;;;;6.57;50.35;100959.31;4945552;29;20023;-75
2022/02/25 10:50:10;;;;;;;7.15;2.17;;;;;;;6.61;52.72;100956.78;4950354;28;20110;-75
2022/02/25 10:52:41;;;;;;;7.47;1.45;;;;;;;6.47;51.19;100967.91;4944844;29;20043;-75
2022/02/25 10:55:12;;;;;;;6.25;1.65;;;;;;;6.36;51.92;100965.06;4945453;29;20160;-76
2022/02/25 10:57:37;;;;;;;5.07;1.40;;;;;;;6.36;51.65;100959.81;4944572;29;20133;-75
2022/02/25 11:00:08;;;;;;;5.72;1.20;;;;;;;6.32;51.88;100976.38;4942557;29;20123;-75
2022/02/25 11:02:47;;;;;;;7.72;1.60;;;;;;;6.56;51.67;100965.44;4945085;29;20047;-74
2022/02/25 11:05:18;;;;;;;5.18;1.40;;;;;;;6.84;52.25;100968.53;4945138;29;20073;-75
2022/02/25 11:07:50;;;;;;;9.90;1.55;;;;;;;7.06;50.54;100963.59;4943848;29;20032;-75
2022/02/25 11:10:18;;;;;;;8.43;2.47;;;;;;;7.23;50.25;100956.84;4946945;29;20047;-75
2022/02/25 11:12:45;;;;;;;4.20;1.65;;;;;;;7.35;50.12;100964.03;4947811;29;20046;-75
2022/02/25 11:15:13;;;;;;;6.57;1.35;;;;;;;7.10;49.83;100957.53;4946349;29;20031;-75
2022/02/25 11:17:41;;;;;;;4.35;1.48;;;;;;;7.27;51.21;100963.03;4945525;29;20031;-75
2022/02/25 11:20:08;;;;;;;4.30;1.42;;;;;;;7.56;49.93;100950.28;4949058;28;20083;-75
2022/02/25 11:22:37;;;;;;;4.57;1.13;;;;;;;7.65;49.70;100950.41;4946495;29;20032;-77
2022/02/25 11:25:02;;;;;;;10.07;1.40;;;;;;;7.83;48.37;100942.75;4947203;29;20416;-74
2022/02/25 11:27:28;;;;;;;7.13;1.80;;;;;;;8.02;48.35;100942.97;4945772;29;20034;-75
2022/02/25 11:30:07;;;;;;;7.70;1.15;;;;;;;8.08;49.02;100970.19;4950287;28;20039;-75
2022/02/25 11:32:42;;;;;;;4.35;1.40;;;;;;;8.20;48.04;100953.69;4945986;29;20039;-75
2022/02/25 11:35:18;;;;;;;6.60;1.63;;;;;;;7.91;45.46;100971.72;4945130;29;20027;-75
2022/02/25 11:37:47;;;;;;;5.65;1.13;;;;;;;7.62;46.47;100953.91;4947834;29;20040;-76